createdAt,value
2022-08-23T00:02:05.840Z,20.35
2022-08-23T00:04:53.237Z,20.37
2022-08-23T00:07:38.046Z,20.32
2022-08-23T00:10:05.271Z,20.25
2022-08-23T00:12:31.672Z,20.22
2022-08-23T00:14:58.467Z,20.15
2022-08-23T00:17:33.863Z,20.11
2022-08-23T00:20:06.384Z,20.05
2022-08-23T00:22:32.939Z,19.88
2022-08-23T00:24:59.284Z,19.80
2022-08-23T00:27:26.864Z,19.78
2022-08-23T00:29:54.814Z,19.87
2022-08-23T00:32:24.676Z,19.86
2022-08-23T00:34:51.525Z,19.64
2022-08-23T00:37:18.962Z,19.56
2022-08-23T00:39:45.812Z,19.62
2022-08-23T00:42:33.495Z,19.64
2022-08-23T00:45:21.288Z,19.67
2022-08-23T00:47:48.322Z,19.60
2022-08-23T00:50:24.203Z,19.58
2022-08-23T00:53:16.254Z,19.59
2022-08-23T00:55:45.916Z,19.57
2022-08-23T00:58:14.527Z,19.58
2022-08-23T01:00:41.115Z,19.51
2022-08-23T01:03:09.803Z,19.56
2022-08-23T01:05:46.621Z,19.49
2022-08-23T01:08:13.167Z,19.44
2022-08-23T01:10:47.256Z,19.37
2022-08-23T01:13:24.645Z,19.43
2022-08-23T01:16:11.874Z,19.36
2022-08-23T01:18:39.611Z,19.34
2022-08-23T01:21:20.714Z,19.34
2022-08-23T01:23:55.471Z,19.38
2022-08-23T01:26:24.903Z,19.32
2022-08-23T01:28:53.935Z,19.45
2022-08-23T01:31:23.184Z,19.29
2022-08-23T01:33:56.811Z,19.27
2022-08-23T01:36:23.337Z,19.28
2022-08-23T01:38:49.792Z,19.32
2022-08-23T01:41:16.299Z,19.28
2022-08-23T01:43:42.710Z,19.27
2022-08-23T01:46:11.887Z,19.24
2022-08-23T01:48:38.572Z,19.27
2022-08-23T01:51:05.678Z,19.28
2022-08-23T01:53:32.109Z,19.24
2022-08-23T01:56:01.475Z,19.26
2022-08-23T01:58:31.106Z,19.16
2022-08-23T02:00:57.755Z,19.14
2022-08-23T02:03:24.522Z,19.06
2022-08-23T02:08:40.787Z,18.90
2022-08-23T02:11:16.568Z,18.91
2022-08-23T02:13:44.186Z,18.79
2022-08-23T02:16:10.973Z,18.79
2022-08-23T02:18:41.558Z,18.80
2022-08-23T02:21:09.574Z,18.72
2022-08-23T02:23:35.911Z,18.74
2022-08-23T02:26:02.307Z,18.69
2022-08-23T02:28:28.703Z,18.62
2022-08-23T02:30:55.079Z,18.63
2022-08-23T02:33:22.172Z,18.56
2022-08-23T02:35:49.970Z,18.46
2022-08-23T02:38:18.074Z,18.38
2022-08-23T02:40:44.586Z,18.38
2022-08-23T02:43:12.052Z,18.43
2022-08-23T02:45:38.956Z,18.42
2022-08-23T02:48:05.878Z,18.44
2022-08-23T02:50:32.343Z,18.44
2022-08-23T02:52:58.977Z,18.42
2022-08-23T02:55:25.414Z,18.36
2022-08-23T02:57:52.114Z,18.37
2022-08-23T03:00:19.531Z,18.33
2022-08-23T03:02:46.124Z,18.32
2022-08-23T03:05:14.787Z,18.40
2022-08-23T03:07:41.252Z,18.38
2022-08-23T03:10:09.190Z,18.37
2022-08-23T03:12:35.807Z,18.33
2022-08-23T03:15:03.594Z,18.26
2022-08-23T03:17:32.273Z,18.25
2022-08-23T03:19:58.638Z,18.27
2022-08-23T03:22:25.155Z,18.22
2022-08-23T03:24:51.578Z,18.18
2022-08-23T03:27:17.977Z,18.18
2022-08-23T03:29:44.340Z,18.19
2022-08-23T03:32:10.692Z,18.19
2022-08-23T03:34:37.131Z,18.12
2022-08-23T03:37:03.879Z,18.12
2022-08-23T03:39:30.270Z,18.10
2022-08-23T03:41:56.700Z,18.06
2022-08-23T03:44:23.168Z,18.11
2022-08-23T03:46:50.436Z,18.02
2022-08-23T03:49:17.046Z,17.97
2022-08-23T03:51:43.469Z,17.96
2022-08-23T03:54:10.305Z,17.90
2022-08-23T03:56:40.051Z,17.88
2022-08-23T03:59:09.164Z,17.87
2022-08-23T04:01:36.515Z,17.87
2022-08-23T04:04:03.298Z,17.88
2022-08-23T04:06:29.855Z,17.87
2022-08-23T04:08:56.555Z,17.83
2022-08-23T04:11:23.847Z,17.84
2022-08-23T04:13:50.428Z,17.82
2022-08-23T04:16:18.867Z,17.79
2022-08-23T04:18:45.808Z,17.75
2022-08-23T04:21:16.920Z,17.73
2022-08-23T04:23:43.351Z,17.77
2022-08-23T04:26:10.224Z,17.78
2022-08-23T04:28:37.029Z,17.73
2022-08-23T04:31:04.579Z,17.70
2022-08-23T04:33:32.766Z,17.67
2022-08-23T04:36:00.217Z,17.59
2022-08-23T04:38:27.387Z,17.55
2022-08-23T04:41:12.855Z,17.43
2022-08-23T04:43:40.423Z,17.39
2022-08-23T04:46:07.475Z,17.41
2022-08-23T04:48:35.268Z,17.44
2022-08-23T04:51:01.876Z,17.48
2022-08-23T04:53:30.325Z,17.50
2022-08-23T04:55:56.847Z,17.50
2022-08-23T04:58:23.235Z,17.54
2022-08-23T05:00:51.765Z,17.57
2022-08-23T05:03:18.452Z,17.54
2022-08-23T05:05:44.866Z,17.54
2022-08-23T05:08:11.455Z,17.48
2022-08-23T05:10:38.218Z,17.55
2022-08-23T05:13:04.631Z,17.55
2022-08-23T05:15:31.048Z,17.54
2022-08-23T05:17:57.554Z,17.52
2022-08-23T05:20:24.088Z,17.52
2022-08-23T05:22:50.450Z,17.49
2022-08-23T05:25:16.934Z,17.52
2022-08-23T05:27:44.330Z,17.54
2022-08-23T05:30:15.367Z,17.48
2022-08-23T05:32:42.284Z,17.57
2022-08-23T05:35:08.982Z,17.65
2022-08-23T05:37:35.369Z,17.67
2022-08-23T05:40:02.050Z,17.74
2022-08-23T05:42:28.524Z,17.81
2022-08-23T05:44:55.414Z,17.91
2022-08-23T05:47:23.676Z,18.00
2022-08-23T05:49:51.645Z,18.08
2022-08-23T05:52:18.013Z,18.15
2022-08-23T05:54:44.482Z,18.27
2022-08-23T05:57:11.309Z,18.36
2022-08-23T05:59:37.649Z,18.53
2022-08-23T06:02:04.390Z,18.55
2022-08-23T06:04:31.010Z,18.62
2022-08-23T06:06:58.793Z,18.73
2022-08-23T06:09:26.222Z,18.83
2022-08-23T06:11:53.033Z,18.97
2022-08-23T06:14:19.894Z,19.06
2022-08-23T06:16:54.865Z,19.19
2022-08-23T06:19:23.669Z,19.23
2022-08-23T06:21:51.265Z,19.38
2022-08-23T06:24:18.275Z,19.48
2022-08-23T06:26:45.361Z,19.71
2022-08-23T06:29:14.664Z,19.66
2022-08-23T06:31:47.509Z,19.70
2022-08-23T06:34:24.055Z,19.89
2022-08-23T06:36:56.358Z,19.97
2022-08-23T06:39:26.196Z,20.05
2022-08-23T06:41:53.622Z,20.07
2022-08-23T06:44:20.451Z,20.17
2022-08-23T06:46:49.208Z,20.19
2022-08-23T06:49:15.990Z,20.32
2022-08-23T06:51:46.369Z,20.45
2022-08-23T06:54:15.192Z,20.63
2022-08-23T06:56:43.496Z,20.71
2022-08-23T06:59:10.439Z,20.88
2022-08-23T07:01:47.974Z,21.00
2022-08-23T07:07:16.557Z,21.29
2022-08-23T07:09:42.935Z,21.36
2022-08-23T07:12:10.833Z,21.45
2022-08-23T07:14:38.252Z,21.60
2022-08-23T07:17:05.268Z,21.66
2022-08-23T07:19:34.370Z,21.59
2022-08-23T07:22:02.323Z,21.79
2022-08-23T07:24:33.303Z,22.04
2022-08-23T07:27:06.164Z,22.18
2022-08-23T07:29:33.140Z,22.20
2022-08-23T07:31:59.599Z,22.38
2022-08-23T07:34:26.428Z,22.45
2022-08-23T07:36:53.894Z,22.64
2022-08-23T07:39:22.139Z,22.63
2022-08-23T07:41:49.503Z,22.72
2022-08-23T07:44:18.189Z,22.86
2022-08-23T07:46:46.009Z,22.92
2022-08-23T07:49:13.115Z,23.27
2022-08-23T07:51:41.865Z,23.39
2022-08-23T07:54:10.403Z,23.41
2022-08-23T07:56:37.601Z,23.55
2022-08-23T07:59:05.147Z,23.52
2022-08-23T08:01:31.639Z,23.67
2022-08-23T08:04:00.279Z,23.56
2022-08-23T08:07:04.752Z,23.91
2022-08-23T08:09:36.241Z,24.01
2022-08-23T08:12:03.168Z,24.15
2022-08-23T08:14:29.547Z,24.32
2022-08-23T08:16:58.684Z,24.29
2022-08-23T08:19:25.527Z,24.53
2022-08-23T08:21:51.998Z,24.53
2022-08-23T08:24:18.973Z,24.75
2022-08-23T08:26:47.042Z,24.81
2022-08-23T08:29:14.063Z,24.91
2022-08-23T08:31:43.138Z,24.96
2022-08-23T08:34:10.114Z,25.04
2022-08-23T08:36:45.484Z,25.31
2022-08-23T08:39:14.872Z,25.53
2022-08-23T08:42:05.284Z,25.47
2022-08-23T08:44:49.667Z,25.42
2022-08-23T08:47:36.347Z,25.45
2022-08-23T08:50:28.390Z,25.67
2022-08-23T08:53:05.175Z,25.63
2022-08-23T08:56:00.631Z,25.38
2022-08-23T08:58:29.954Z,25.93
2022-08-23T09:00:56.849Z,26.12
2022-08-23T09:03:34.177Z,26.31
2022-08-23T09:06:18.994Z,26.35
2022-08-23T09:09:09.828Z,26.48
2022-08-23T09:12:01.265Z,25.86
2022-08-23T09:15:21.212Z,26.20
2022-08-23T09:17:54.598Z,26.59
2022-08-23T09:20:24.156Z,26.90
2022-08-23T09:22:58.108Z,27.20
2022-08-23T09:25:24.890Z,27.47
2022-08-23T09:27:51.248Z,27.38
2022-08-23T09:30:20.066Z,27.42
2022-08-23T09:32:50.117Z,27.43
2022-08-23T09:35:26.202Z,27.47
2022-08-23T09:38:21.148Z,27.70
2022-08-23T09:40:50.595Z,27.52
2022-08-23T09:43:25.963Z,27.52
2022-08-23T09:45:52.286Z,27.33
2022-08-23T09:48:39.863Z,27.78
2022-08-23T09:51:17.527Z,27.94
2022-08-23T09:53:50.120Z,27.87
2022-08-23T09:56:23.445Z,28.29
2022-08-23T09:58:53.433Z,28.45
2022-08-23T10:01:28.437Z,28.61
2022-08-23T10:04:22.600Z,28.76
2022-08-23T10:06:49.261Z,28.77
2022-08-23T10:09:28.094Z,28.88
2022-08-23T10:11:56.718Z,28.94
2022-08-23T10:14:28.677Z,29.23
2022-08-23T10:17:30.929Z,29.31
2022-08-23T10:20:21.544Z,29.11
2022-08-23T10:23:15.314Z,28.98
2022-08-23T10:26:01.945Z,29.02
2022-08-23T10:29:03.720Z,29.19
2022-08-23T10:31:39.620Z,29.00
2022-08-23T10:34:34.116Z,29.54
2022-08-23T10:37:22.142Z,29.89
2022-08-23T10:40:03.979Z,30.08
2022-08-23T10:42:33.638Z,30.22
2022-08-23T10:45:09.367Z,29.62
2022-08-23T10:47:41.267Z,29.95
2022-08-23T10:50:19.264Z,30.21
2022-08-23T10:53:04.979Z,30.23
2022-08-23T10:55:54.623Z,30.45
2022-08-23T10:58:27.140Z,30.57
2022-08-23T11:00:58.531Z,29.84
2022-08-23T11:03:31.680Z,30.41
2022-08-23T11:06:35.346Z,30.46
2022-08-23T11:09:22.434Z,30.41
2022-08-23T11:12:14.101Z,30.64
2022-08-23T11:14:45.523Z,30.38
2022-08-23T11:17:25.205Z,31.01
2022-08-23T11:19:59.123Z,30.69
2022-08-23T11:22:32.475Z,30.36
2022-08-23T11:24:58.792Z,30.86
2022-08-23T11:27:46.008Z,31.20
2022-08-23T11:30:36.956Z,30.99
2022-08-23T11:33:16.677Z,31.21
2022-08-23T11:35:48.248Z,31.68
2022-08-23T11:38:15.679Z,31.84
2022-08-23T11:40:51.698Z,31.73
2022-08-23T11:43:38.007Z,31.71
2022-08-23T11:46:23.049Z,31.57
2022-08-23T11:49:04.653Z,31.84
2022-08-23T11:51:40.273Z,32.09
2022-08-23T11:54:57.331Z,32.27
2022-08-23T11:57:37.490Z,32.06
2022-08-23T12:00:14.669Z,32.54
2022-08-23T12:03:13.263Z,32.57
2022-08-23T12:06:02.805Z,32.53
2022-08-23T12:08:50.295Z,32.73
2022-08-23T12:11:19.154Z,32.43
2022-08-23T12:13:48.372Z,32.38
2022-08-23T12:16:16.211Z,32.46
2022-08-23T12:18:50.608Z,32.58
2022-08-23T12:21:23.527Z,32.85
2022-08-23T12:23:56.711Z,32.96
2022-08-23T12:26:42.376Z,32.58
2022-08-23T12:29:18.938Z,32.59
2022-08-23T12:32:10.159Z,32.95
2022-08-23T12:34:51.255Z,32.70
2022-08-23T12:37:48.139Z,32.86
2022-08-23T12:40:32.446Z,33.31
2022-08-23T12:43:21.223Z,33.24
2022-08-23T12:45:52.677Z,33.33
2022-08-23T12:48:23.501Z,33.31
2022-08-23T12:51:02.821Z,33.10
2022-08-23T12:53:36.344Z,33.64
2022-08-23T12:56:14.203Z,33.52
2022-08-23T12:58:46.424Z,33.63
2022-08-23T13:01:26.398Z,33.82
2022-08-23T13:04:08.176Z,32.95
2022-08-23T13:06:42.982Z,33.55
2022-08-23T13:09:17.506Z,33.70
2022-08-23T13:11:45.604Z,33.77
2022-08-23T13:14:22.455Z,33.68
2022-08-23T13:16:51.536Z,33.87
2022-08-23T13:19:22.180Z,33.83
2022-08-23T13:21:51.223Z,33.89
2022-08-23T13:24:31.410Z,33.73
2022-08-23T13:27:18.457Z,33.99
2022-08-23T13:30:10.524Z,33.77
2022-08-23T13:32:36.893Z,33.13
2022-08-23T13:35:23.820Z,33.25
2022-08-23T13:37:52.311Z,33.24
2022-08-23T13:40:29.628Z,33.32
2022-08-23T13:43:04.324Z,33.75
2022-08-23T13:45:34.526Z,34.05
2022-08-23T13:48:19.786Z,34.12
2022-08-23T13:50:46.846Z,33.76
2022-08-23T13:53:15.559Z,33.87
2022-08-23T13:56:02.452Z,33.86
2022-08-23T13:58:31.876Z,34.01
2022-08-23T14:01:00.806Z,33.86
2022-08-23T14:03:29.037Z,34.10
2022-08-23T14:05:55.596Z,34.70
2022-08-23T14:08:22.750Z,34.52
2022-08-23T14:10:49.705Z,34.30
2022-08-23T14:13:18.228Z,34.11
2022-08-23T14:18:33.471Z,34.95
2022-08-23T14:21:00.269Z,34.39
2022-08-23T14:23:26.875Z,34.42
2022-08-23T14:25:55.712Z,33.97
2022-08-23T14:28:24.894Z,33.59
2022-08-23T14:30:51.538Z,33.70
2022-08-23T14:33:19.832Z,33.97
2022-08-23T14:35:46.184Z,34.07
2022-08-23T14:38:14.966Z,33.86
2022-08-23T14:40:53.851Z,34.14
2022-08-23T14:43:21.718Z,34.17
2022-08-23T14:45:49.222Z,34.11
2022-08-23T14:48:16.525Z,34.17
2022-08-23T14:50:44.271Z,33.47
2022-08-23T14:53:12.259Z,33.19
2022-08-23T14:55:38.607Z,33.36
2022-08-23T14:58:04.958Z,33.75
2022-08-23T15:00:32.483Z,33.47
2022-08-23T15:02:59.209Z,33.80
2022-08-23T15:05:25.606Z,33.55
2022-08-23T15:07:52.222Z,33.56
2022-08-23T15:13:28.325Z,33.03
2022-08-23T15:15:52.435Z,33.30
2022-08-23T15:18:19.585Z,33.19
2022-08-23T15:20:46.225Z,33.27
2022-08-23T15:23:12.695Z,32.95
2022-08-23T15:25:41.159Z,33.00
2022-08-23T15:28:12.896Z,33.23
2022-08-23T15:30:40.652Z,33.45
2022-08-23T15:33:07.230Z,33.35
2022-08-23T15:35:43.293Z,33.44
2022-08-23T15:38:12.765Z,33.79
2022-08-23T15:40:39.884Z,33.36
2022-08-23T15:43:06.464Z,33.41
2022-08-23T15:45:33.884Z,33.34
2022-08-23T15:48:04.364Z,32.86
2022-08-23T15:50:33.877Z,32.80
2022-08-23T15:53:01.143Z,32.74
2022-08-23T15:55:31.369Z,32.67
2022-08-23T15:57:58.668Z,32.61
2022-08-23T16:00:26.520Z,32.60
2022-08-23T16:03:18.748Z,32.18
2022-08-23T16:05:43.360Z,32.38
2022-08-23T16:08:20.732Z,32.49
2022-08-23T16:10:47.147Z,32.58
2022-08-23T16:13:13.927Z,32.59
2022-08-23T16:15:40.360Z,32.11
2022-08-23T16:18:07.400Z,31.82
2022-08-23T16:20:33.960Z,32.22
2022-08-23T16:23:00.527Z,32.37
2022-08-23T16:25:27.136Z,32.35
2022-08-23T16:27:53.525Z,32.27
2022-08-23T16:30:19.886Z,32.17
2022-08-23T16:32:46.480Z,32.08
2022-08-23T16:35:13.884Z,31.99
2022-08-23T16:37:40.213Z,31.98
2022-08-23T16:40:09.134Z,31.75
2022-08-23T16:42:35.578Z,31.70
2022-08-23T16:45:02.002Z,31.66
2022-08-23T16:47:31.297Z,31.67
2022-08-23T16:49:57.748Z,31.63
2022-08-23T16:52:24.843Z,31.44
2022-08-23T16:55:06.057Z,31.43
2022-08-23T16:57:33.388Z,31.70
2022-08-23T16:59:59.756Z,31.63
2022-08-23T17:02:29.919Z,31.51
2022-08-23T17:04:57.477Z,31.08
2022-08-23T17:07:24.319Z,30.91
2022-08-23T17:09:50.735Z,30.90
2022-08-23T17:12:17.883Z,30.91
2022-08-23T17:14:45.424Z,30.94
2022-08-23T17:17:12.820Z,30.81
2022-08-23T17:19:40.663Z,30.73
2022-08-23T17:22:07.425Z,30.72
2022-08-23T17:24:33.944Z,30.50
2022-08-23T17:27:00.663Z,30.47
2022-08-23T17:29:27.568Z,30.32
2022-08-23T17:31:57.503Z,30.22
2022-08-23T17:34:23.975Z,30.19
2022-08-23T17:36:52.994Z,30.16
2022-08-23T17:39:23.108Z,29.97
2022-08-23T17:41:49.502Z,29.88
2022-08-23T17:44:15.927Z,29.78
2022-08-23T17:46:44.706Z,29.67
2022-08-23T17:49:12.061Z,29.48
2022-08-23T17:51:40.972Z,29.43
2022-08-23T17:54:08.801Z,29.38
2022-08-23T17:56:35.551Z,29.25
2022-08-23T17:59:01.896Z,29.08
2022-08-23T18:01:28.398Z,28.98
2022-08-23T18:03:54.835Z,28.85
2022-08-23T18:06:22.185Z,28.69
2022-08-23T18:08:48.883Z,28.62
2022-08-23T18:11:15.762Z,28.49
2022-08-23T18:13:42.379Z,28.41
2022-08-23T18:16:08.888Z,28.29
2022-08-23T18:18:35.425Z,28.21
2022-08-23T18:21:09.607Z,28.10
2022-08-23T18:23:36.008Z,28.06
2022-08-23T18:26:30.607Z,27.89
2022-08-23T18:28:58.042Z,27.76
2022-08-23T18:31:26.866Z,27.68
2022-08-23T18:33:58.356Z,27.58
2022-08-23T18:36:28.469Z,27.42
2022-08-23T18:38:54.914Z,27.24
2022-08-23T18:41:21.375Z,27.09
2022-08-23T18:43:47.970Z,27.04
2022-08-23T18:46:14.422Z,26.90
2022-08-23T18:48:41.165Z,26.87
2022-08-23T18:51:13.960Z,26.75
2022-08-23T18:53:44.766Z,26.64
2022-08-23T18:56:11.193Z,26.57
2022-08-23T18:58:37.527Z,26.47
2022-08-23T19:01:31.860Z,26.38
2022-08-23T19:04:00.068Z,26.31
2022-08-23T19:06:27.286Z,26.26
2022-08-23T19:08:54.301Z,26.06
2022-08-23T19:11:22.119Z,25.96
2022-08-23T19:13:50.882Z,25.87
2022-08-23T19:16:18.646Z,25.84
2022-08-23T19:18:46.459Z,25.78
2022-08-23T19:21:15.372Z,25.67
2022-08-23T19:23:42.106Z,25.56
2022-08-23T19:26:10.454Z,25.55
2022-08-23T19:28:37.508Z,25.49
2022-08-23T19:31:05.152Z,25.48
2022-08-23T19:33:32.135Z,25.36
2022-08-23T19:35:58.892Z,25.26
2022-08-23T19:38:27.581Z,25.15
2022-08-23T19:40:55.193Z,25.16
2022-08-23T19:43:22.411Z,25.12
2022-08-23T19:45:48.913Z,24.92
2022-08-23T19:48:15.305Z,24.86
2022-08-23T19:50:41.673Z,24.72
2022-08-23T19:53:08.724Z,24.65
2022-08-23T19:55:39.548Z,24.71
2022-08-23T19:58:05.886Z,24.54
2022-08-23T20:00:34.006Z,24.47
2022-08-23T20:03:00.744Z,24.34
2022-08-23T20:05:27.552Z,24.30
2022-08-23T20:07:54.679Z,24.19
2022-08-23T20:10:21.819Z,24.11
2022-08-23T20:12:48.163Z,24.18
2022-08-23T20:15:14.628Z,24.09
2022-08-23T20:17:41.361Z,24.12
2022-08-23T20:20:09.840Z,24.12
2022-08-23T20:22:54.867Z,24.01
2022-08-23T20:25:21.239Z,23.96
2022-08-23T20:27:48.378Z,23.83
2022-08-23T20:30:15.043Z,23.75
2022-08-23T20:32:42.453Z,23.75
2022-08-23T20:35:10.156Z,23.70
2022-08-23T20:37:37.209Z,23.54
2022-08-23T20:40:05.884Z,23.55
2022-08-23T20:42:32.382Z,23.48
2022-08-23T20:44:58.744Z,23.44
2022-08-23T20:47:25.264Z,23.31
2022-08-23T20:49:51.772Z,23.19
2022-08-23T20:52:18.253Z,23.05
2022-08-23T20:54:45.789Z,22.89
2022-08-23T20:57:12.168Z,22.79
2022-08-23T20:59:43.676Z,22.76
2022-08-23T21:02:11.024Z,22.81
2022-08-23T21:04:37.804Z,22.79
2022-08-23T21:07:06.623Z,22.75
2022-08-23T21:09:34.062Z,22.66
2022-08-23T21:12:00.423Z,22.60
2022-08-23T21:14:26.770Z,22.59
2022-08-23T21:16:53.280Z,22.58
2022-08-23T21:19:19.740Z,22.59
2022-08-23T21:21:46.850Z,22.53
2022-08-23T21:24:13.543Z,22.59
2022-08-23T21:26:40.874Z,22.50
2022-08-23T21:29:08.568Z,22.48
2022-08-23T21:31:35.525Z,22.33
2022-08-23T21:34:01.989Z,22.17
2022-08-23T21:36:28.750Z,22.05
2022-08-23T21:38:55.394Z,22.07
2022-08-23T21:41:29.721Z,22.05
2022-08-23T21:43:56.140Z,22.05
2022-08-23T21:46:22.970Z,22.00
2022-08-23T21:48:49.368Z,21.93
2022-08-23T21:51:15.857Z,21.82
2022-08-23T21:53:42.181Z,21.79
2022-08-23T21:56:08.631Z,21.74
2022-08-23T21:58:34.992Z,21.62
2022-08-23T22:01:01.380Z,21.45
2022-08-23T22:03:28.522Z,21.49
2022-08-23T22:05:55.637Z,21.52
2022-08-23T22:08:22.056Z,21.51
2022-08-23T22:10:56.790Z,21.53
2022-08-23T22:13:26.141Z,21.55
2022-08-23T22:15:52.604Z,21.57
2022-08-23T22:18:19.468Z,21.55
2022-08-23T22:20:45.881Z,21.54
2022-08-23T22:23:12.280Z,21.55
2022-08-23T22:25:38.731Z,21.52
2022-08-23T22:28:05.091Z,21.47
2022-08-23T22:30:31.511Z,21.50
2022-08-23T22:32:57.871Z,21.43
2022-08-23T22:35:24.201Z,21.40
2022-08-23T22:38:12.356Z,21.37
2022-08-23T22:40:36.939Z,21.34
2022-08-23T22:43:03.408Z,21.35
2022-08-23T22:45:29.755Z,21.29
2022-08-23T22:47:56.602Z,21.21
2022-08-23T22:50:23.063Z,21.04
2022-08-23T22:52:50.765Z,20.99
2022-08-23T22:55:17.307Z,21.09
2022-08-23T22:57:43.836Z,21.27
2022-08-23T23:00:10.890Z,21.18
2022-08-23T23:02:37.919Z,21.05
2022-08-23T23:05:04.958Z,21.00
2022-08-23T23:07:49.820Z,21.05
2022-08-23T23:10:16.875Z,21.01
2022-08-23T23:12:43.212Z,21.06
2022-08-23T23:15:10.043Z,21.12
2022-08-23T23:17:36.402Z,21.03
2022-08-23T23:20:23.000Z,21.00
2022-08-23T23:22:51.282Z,21.05
2022-08-23T23:25:17.900Z,21.05
2022-08-23T23:27:44.998Z,21.09
2022-08-23T23:30:11.754Z,21.11
2022-08-23T23:32:38.179Z,21.12
2022-08-23T23:35:06.446Z,21.07
2022-08-23T23:37:33.098Z,20.97
2022-08-23T23:39:59.589Z,20.96
2022-08-23T23:42:25.987Z,20.96
2022-08-23T23:44:52.334Z,20.97
2022-08-23T23:47:18.754Z,20.96
2022-08-23T23:49:45.120Z,20.95
2022-08-23T23:52:11.484Z,20.90
2022-08-23T23:54:38.388Z,20.85
2022-08-23T23:57:05.839Z,20.90
2022-08-23T23:59:32.892Z,20.81
